createdAt,value
2019-01-27T00:04:40.183Z,38.13
2019-01-27T00:09:43.191Z,37.07
2019-01-27T00:14:44.990Z,35.90
2019-01-27T00:19:49.407Z,39.93
2019-01-27T00:24:51.176Z,36.37
2019-01-27T00:29:57.314Z,45.70
2019-01-27T00:34:59.335Z,25.30
2019-01-27T00:40:01.316Z,51.67
2019-01-27T00:45:05.555Z,39.30
2019-01-27T00:50:10.781Z,43.10
2019-01-27T00:55:18.731Z,39.87
2019-01-27T01:00:23.882Z,20.10
2019-01-27T01:05:25.682Z,38.50
2019-01-27T01:10:28.206Z,45.20
2019-01-27T01:15:30.346Z,41.13
2019-01-27T01:20:33.743Z,46.40
2019-01-27T01:25:35.539Z,36.13
2019-01-27T01:30:37.412Z,30.23
2019-01-27T01:35:39.860Z,41.33
2019-01-27T01:40:41.682Z,45.57
2019-01-27T01:45:43.558Z,37.50
2019-01-27T01:50:45.441Z,61.47
2019-01-27T01:55:47.727Z,37.63
2019-01-27T02:00:49.528Z,43.50
2019-01-27T02:05:51.719Z,20.20
2019-01-27T02:10:54.285Z,30.13
2019-01-27T02:16:01.484Z,32.40
2019-01-27T02:21:04.387Z,24.40
2019-01-27T02:26:06.677Z,14.40
2019-01-27T02:31:08.453Z,12.83
2019-01-27T02:36:10.548Z,28.57
2019-01-27T02:41:12.927Z,24.37
2019-01-27T02:46:15.031Z,29.40
2019-01-27T02:51:18.177Z,25.07
2019-01-27T02:56:22.205Z,30.00
2019-01-27T03:01:24.641Z,27.83
2019-01-27T03:06:28.266Z,29.93
2019-01-27T03:11:33.178Z,43.13
2019-01-27T03:16:36.222Z,31.10
2019-01-27T03:21:38.096Z,39.37
2019-01-27T03:26:39.869Z,32.73
2019-01-27T03:31:41.750Z,39.60
2019-01-27T03:36:43.631Z,36.67
2019-01-27T03:41:45.402Z,37.47
2019-01-27T03:46:47.279Z,40.13
2019-01-27T03:51:49.179Z,30.07
2019-01-27T03:56:50.933Z,36.20
2019-01-27T04:01:53.948Z,27.50
2019-01-27T04:06:56.026Z,57.90
2019-01-27T04:12:00.467Z,55.60
2019-01-27T04:17:02.342Z,27.20
2019-01-27T04:22:04.635Z,21.10
2019-01-27T04:27:06.521Z,34.60
2019-01-27T04:32:08.390Z,30.03
2019-01-27T04:37:10.263Z,41.57
2019-01-27T04:42:12.142Z,44.37
2019-01-27T04:47:14.021Z,39.27
2019-01-27T04:52:15.900Z,34.00
2019-01-27T04:57:17.702Z,55.10
2019-01-27T05:02:20.165Z,41.80
2019-01-27T05:07:22.459Z,42.53
2019-01-27T05:12:25.152Z,26.83
2019-01-27T05:17:26.937Z,34.90
2019-01-27T05:22:29.114Z,32.07
2019-01-27T05:27:30.995Z,50.03
2019-01-27T05:32:32.874Z,49.93
2019-01-27T05:37:34.749Z,41.67
2019-01-27T05:42:36.481Z,30.60
2019-01-27T05:47:38.199Z,28.37
2019-01-27T05:52:40.076Z,25.13
2019-01-27T05:57:42.776Z,57.70
2019-01-27T06:02:44.551Z,36.90
2019-01-27T06:07:46.328Z,22.90
2019-01-27T06:12:48.206Z,19.50
2019-01-27T06:17:49.983Z,39.67
2019-01-27T06:22:51.861Z,29.87
2019-01-27T06:27:53.740Z,28.93
2019-01-27T06:33:09.758Z,23.87
2019-01-27T06:38:12.795Z,27.80
2019-01-27T06:43:14.652Z,15.23
2019-01-27T06:48:16.342Z,23.57
2019-01-27T06:53:18.545Z,24.87
2019-01-27T06:58:22.164Z,11.00
2019-01-27T07:03:25.748Z,19.37
2019-01-27T07:08:35.187Z,12.30
2019-01-27T07:13:51.358Z,18.03
2019-01-27T07:18:57.752Z,15.30
2019-01-27T07:24:10.948Z,15.20
2019-01-27T07:29:31.304Z,18.23
2019-01-27T07:34:38.125Z,11.53
2019-01-27T07:39:48.171Z,10.93
2019-01-27T07:44:55.074Z,10.77
2019-01-27T07:49:58.692Z,15.03
2019-01-27T07:55:02.320Z,12.97
2019-01-27T08:00:15.561Z,8.73
2019-01-27T08:05:25.013Z,9.97
2019-01-27T08:10:46.554Z,21.60
2019-01-27T08:15:53.746Z,16.33
2019-01-27T08:21:03.331Z,25.00
2019-01-27T08:26:12.783Z,16.20
2019-01-27T08:31:28.589Z,15.67
2019-01-27T08:36:32.217Z,15.80
2019-01-27T08:41:41.776Z,17.30
2019-01-27T08:46:45.610Z,13.70
2019-01-27T08:51:47.389Z,8.43
2019-01-27T08:56:49.105Z,20.83
2019-01-27T09:01:52.994Z,12.30
2019-01-27T09:06:57.128Z,14.70
2019-01-27T09:12:00.749Z,24.40
2019-01-27T09:17:16.757Z,16.33
2019-01-27T09:22:20.374Z,12.30
2019-01-27T09:27:26.761Z,21.30
2019-01-27T09:32:33.145Z,17.03
2019-01-27T09:37:39.630Z,7.47
2019-01-27T09:42:45.991Z,11.30
2019-01-27T09:48:03.031Z,10.77
2019-01-27T09:53:09.434Z,12.50
2019-01-27T09:58:13.256Z,8.37
2019-01-27T10:03:16.821Z,8.27
2019-01-27T10:08:26.541Z,11.43
2019-01-27T10:13:30.158Z,8.40
2019-01-27T10:18:43.198Z,12.33
2019-01-27T10:23:46.814Z,15.07
2019-01-27T10:29:02.645Z,12.27
2019-01-27T10:34:06.238Z,11.40
2019-01-27T10:39:12.933Z,14.10
2019-01-27T10:44:16.552Z,24.73
2019-01-27T10:49:20.171Z,8.30
2019-01-27T10:54:32.803Z,12.97
2019-01-27T10:59:36.421Z,14.60
2019-01-27T11:04:43.076Z,11.37
2019-01-27T11:09:49.935Z,16.63
2019-01-27T11:14:53.850Z,9.70
2019-01-27T11:20:14.882Z,16.63
2019-01-27T11:25:24.646Z,17.47
2019-01-27T11:30:31.263Z,10.47
2019-01-27T11:35:41.396Z,15.10
2019-01-27T11:40:46.384Z,12.27
2019-01-27T11:45:54.305Z,13.00
2019-01-27T11:50:57.856Z,11.67
2019-01-27T11:56:01.494Z,10.20
2019-01-27T12:01:05.085Z,12.00
2019-01-27T12:06:06.949Z,18.23
2019-01-27T12:11:10.547Z,7.77
2019-01-27T12:16:14.192Z,9.03
2019-01-27T12:21:16.321Z,8.23
2019-01-27T12:26:18.184Z,8.47
2019-01-27T12:31:23.790Z,7.63
2019-01-27T12:36:32.785Z,9.90
2019-01-27T12:41:36.889Z,10.43
2019-01-27T12:46:39.116Z,9.40
2019-01-27T12:51:40.777Z,8.47
2019-01-27T12:56:42.518Z,11.70
2019-01-27T13:01:44.657Z,7.43
2019-01-27T13:06:49.603Z,9.70
2019-01-27T13:11:51.432Z,8.33
2019-01-27T13:16:53.496Z,9.97
2019-01-27T13:21:59.794Z,6.27
2019-01-27T13:27:01.709Z,8.30
2019-01-27T13:32:06.393Z,7.80
2019-01-27T13:37:09.949Z,11.40
2019-01-27T13:42:12.947Z,8.90
2019-01-27T13:47:15.578Z,8.47
2019-01-27T13:52:21.437Z,7.17
2019-01-27T13:57:24.351Z,8.20
2019-01-27T14:02:33.659Z,6.70
2019-01-27T14:07:37.439Z,7.57
2019-01-27T14:12:39.789Z,7.17
2019-01-27T14:17:41.568Z,7.67
2019-01-27T14:22:43.979Z,5.63
2019-01-27T14:27:47.069Z,9.80
2019-01-27T14:32:49.843Z,7.20
2019-01-27T14:37:51.892Z,9.20
2019-01-27T14:42:53.812Z,5.50
2019-01-27T14:47:55.711Z,7.53
2019-01-27T14:53:00.610Z,6.80
2019-01-27T14:58:02.752Z,5.10
2019-01-27T15:03:05.448Z,7.63
2019-01-27T15:08:07.379Z,7.20
2019-01-27T15:13:09.534Z,8.30
2019-01-27T15:18:11.514Z,10.30
2019-01-27T15:23:14.738Z,7.87
2019-01-27T15:28:18.955Z,9.73
2019-01-27T15:33:22.893Z,9.30
2019-01-27T15:38:24.904Z,8.63
2019-01-27T15:43:26.984Z,11.87
2019-01-27T15:48:39.676Z,6.77
2019-01-27T15:53:43.622Z,8.83
2019-01-27T15:58:45.836Z,11.43
2019-01-27T16:03:51.369Z,16.50
2019-01-27T16:08:56.158Z,15.40
2019-01-27T16:13:58.553Z,10.40
2019-01-27T16:19:00.469Z,12.43
2019-01-27T16:24:07.020Z,12.87
2019-01-27T16:29:09.368Z,24.43
2019-01-27T16:34:13.010Z,17.60
2019-01-27T16:39:14.986Z,13.70
2019-01-27T16:44:17.261Z,20.27
2019-01-27T16:49:19.242Z,18.60
2019-01-27T16:54:21.213Z,13.87
2019-01-27T16:59:23.087Z,20.60
2019-01-27T17:04:25.084Z,33.70
2019-01-27T17:09:26.995Z,19.87
2019-01-27T17:14:28.930Z,15.10
2019-01-27T17:19:32.046Z,25.43
2019-01-27T17:24:36.278Z,19.70
2019-01-27T17:29:38.165Z,31.13
2019-01-27T17:34:40.237Z,20.50
2019-01-27T17:39:42.634Z,23.80
2019-01-27T17:44:44.501Z,24.07
2019-01-27T17:49:46.383Z,28.77
2019-01-27T17:54:48.580Z,36.97
2019-01-27T17:59:52.614Z,20.57
2019-01-27T18:04:56.197Z,22.00
2019-01-27T18:10:00.298Z,21.80
2019-01-27T18:15:02.572Z,17.77
2019-01-27T18:20:08.134Z,22.13
2019-01-27T18:25:12.092Z,26.93
2019-01-27T18:30:17.420Z,34.10
2019-01-27T18:35:19.333Z,22.00
2019-01-27T18:40:21.175Z,26.87
2019-01-27T18:45:23.126Z,32.53
2019-01-27T18:50:24.983Z,23.03
2019-01-27T18:55:28.675Z,33.17
2019-01-27T19:00:48.641Z,35.93
2019-01-27T19:05:52.437Z,39.53
2019-01-27T19:11:02.629Z,51.53
2019-01-27T19:16:07.360Z,55.20
2019-01-27T19:21:11.438Z,74.80
2019-01-27T19:26:20.948Z,65.30
2019-01-27T19:31:27.684Z,74.73
2019-01-27T19:36:31.306Z,62.60
2019-01-27T19:41:38.699Z,59.30
2019-01-27T19:46:42.367Z,66.13
2019-01-27T19:51:51.637Z,83.17
2019-01-27T19:57:01.513Z,68.07
2019-01-27T20:02:06.059Z,71.40
2019-01-27T20:07:15.538Z,59.87
2019-01-27T20:12:19.328Z,75.53
2019-01-27T20:17:25.713Z,65.07
2019-01-27T20:22:31.800Z,75.13
2019-01-27T20:27:54.320Z,69.30
2019-01-27T20:33:03.911Z,69.43
2019-01-27T20:38:16.293Z,60.73
2019-01-27T20:43:25.659Z,82.87
2019-01-27T20:48:35.018Z,62.00
2019-01-27T20:53:55.698Z,51.97
2019-01-27T20:59:02.290Z,54.33
2019-01-27T21:04:22.397Z,62.60
2019-01-27T21:09:42.487Z,43.23
2019-01-27T21:14:54.874Z,73.13
2019-01-27T21:19:56.848Z,38.57
2019-01-27T21:24:58.524Z,20.47
2019-01-27T21:30:00.342Z,23.40
2019-01-27T21:35:02.123Z,62.23
2019-01-27T21:40:13.380Z,34.37
2019-01-27T21:45:15.443Z,29.23
2019-01-27T21:50:17.580Z,29.60
2019-01-27T21:55:19.368Z,13.63
2019-01-27T22:00:21.549Z,6.97
2019-01-27T22:05:23.397Z,5.77
2019-01-27T22:10:25.223Z,22.80
2019-01-27T22:15:27.123Z,16.30
2019-01-27T22:20:28.908Z,31.13
2019-01-27T22:25:30.701Z,15.17
2019-01-27T22:30:32.897Z,10.60
2019-01-27T22:35:34.661Z,17.87
2019-01-27T22:40:36.424Z,18.33
2019-01-27T22:45:38.859Z,10.83
2019-01-27T22:50:40.943Z,6.33
2019-01-27T22:55:42.735Z,9.80
2019-01-27T23:01:01.298Z,8.10
2019-01-27T23:06:03.181Z,10.87
2019-01-27T23:11:04.966Z,20.13
2019-01-27T23:16:07.074Z,27.33
2019-01-27T23:21:08.950Z,24.80
2019-01-27T23:26:10.726Z,11.43
2019-01-27T23:31:13.230Z,12.37
2019-01-27T23:36:15.140Z,19.13
2019-01-27T23:41:16.882Z,16.93
2019-01-27T23:46:18.532Z,31.13
2019-01-27T23:51:20.335Z,15.43
2019-01-27T23:56:22.010Z,5.70
